Pagina principale
METAR-TAF:

METAR-TAF

Aeroporti :

Aeroporto di Győr-Pér

Győr, Ungheria

latitudine: 47-37-28N, longitudine: 017-48-49E, altezza: 129 m

Osservazione

Il bollettino è stato emesso 49 minuti fa, alle 02:45 UTC
Vento 3 kt da sud-ovest, variando fra sud/sud-est e ovest/nord-ovest
Temperature -2°C
Umidità 93%
Pressione 1024 hPa
Visibilità: 4100 m
Cielo coperto ad un'altezza di 300 ft
foschia

METAR: LHPR 250245Z AUTO 23003KT 160V290 4100 BR OVC003 M02/M03 Q1024

Ora: 04:34 (03:34 UTC)

Previsione

Il bollettino è stato emesso 7 ore e 2 minuti fa, alle 20:32 UTC
Previsione valida dal 24 alle 20 UTC al 25 alle 03 UTC
Vento 2 kt da direzioni variabili
Visibilità: 6000 m
Cielo coperto ad un'altezza di 800 ft
Temporaneamente
dal 24 alle 22 UTC al 25 alle 03 UTC
Visibilità: 1500 m
Cielo coperto ad un'altezza di 200 ft
pioviggine che ghiaccia, foschia

TAF: LHPR 242032Z 2420/2503 VRB02KT 6000 OVC008 TEMPO 2422/2503 1500 FZDZ BR OVC002

Osservazioni e previsioni meteorologiche di più di 4000 aeroporti (messaggi METAR e TAF).

Le stazioni disponibili sono rappresentate dai dischi gialli e rossi sulla carta.

Puntare il mouse per vedere il nome della stazione.

Clicca sopra per visualizzare le osservazioni e previsioni meteorologiche.

Per cambiare la mappa : fare clic sui pulsanti verdi con una croce nera per ingrandire, il pulsante verde con un trattino per diminuire, o sulla freccia verde per le mappe adiacenti.


METAR-TAF: